Terminal Aerodrome Forecast
Issued by NWS

Home | Current Version | Previous Version | Text Only | Print | Product List | Glossary On
Versions: 1 2 3 4 5 6 7 8 9 10 11 12 13 14 15 16 17
000
FTUS43 KPAH 281700
TAFCGI
TAF
KCGI 281731Z 2818/2918 34008KT P6SM SCT060 BKN250
     FM290000 35003KT P6SM SCT250
     FM291600 31009KT P6SM SKC=

USA.gov is the U.S. government's official web portal to all federal, state and local government web resources and services.